Aérodrome :
LOGIN :

S'inscrire | Disclaimer

   EN    FR    IT 

 










Légende :    VFR   VFR Marginal   IFR   IFR Intensif   IFR Très Intensif
Visi : 
Plafond : 
>= 8 km
>= 3000ft
5 à 8 km
1000 à 3000 ft
1500m à 5 km
500 à 1000 ft
800 à 1500m
200 à 500 ft
< 800m
< 200 ft
Symboles :   Orages  Brouillard  Fortes neiges  Fortes précipitations  Vent > 20 kt
SIGMETs :   Divers  Orages  Givrage  Turbulence  Onde Orograph.  Cendres Volcan.






- Altitude de l'aérodrome : 72 ft
- Code IATA : UDE


EHVK - Volkel Airbase

DERNIER METAR :
  • 251825Z AUTO 20007KT 160V230 9999 OVC250 08/05 Q1017 BLU NOSIG

METARs EXPIRÉS :
  • 251813Z AUTO 19007KT 160V230 9999 OVC240 08/05 Q1017 BLU NOSIG
  • 251755Z AUTO 19006KT 9999 OVC017 08/05 Q1016 WHT NOSIG
  • 251741Z AUTO 18005KT 140V220 9999 SCT016 BKN020 OVC220 08/05 Q1016 WHT NOSIG
  • 251734Z AUTO 18005KT 140V200 9999 SCT018 OVC220 08/05 Q1016 WHT NOSIG
  • 251725Z AUTO 18005KT 140V200 9999 FEW017 OVC220 08/05 Q1016 BLU
  • 251655Z AUTO 19006KT 9999 OVC170 08/05 Q1016 BLU
  • 251630Z AUTO 18004KT 150V230 9999 OVC170 08/05 Q1016 BLU
  • 251555Z AUTO 19006KT 160V230 9999 OVC170 08/05 Q1016 BLU NOSIG

TAF TAF EHVK
Valide du 25 à 18h jusqu'au 26 à 06h UTC


251718Z 2518/2606 19005KT 9999 SCT025 BKN250
PROB30 2523/2606 4000 BR
BECMG 2603/2606 BKN012



MET'MAP, la Météo Aéronautique d'un coup d'oeil ! - Copyright ORBIFLY Décembre 2007 - Disclaimer

ORBIFLY MET'MAP TEAM :

Programmation & Développement : Alexandra Zaïnal
Sur une idée originale de : Baudouin d'Aumeries
Assistance à la programmation : Marc-Olivier Méhu
Soutien technique & logistique : Manuel Goepfert

Contact : metmap@orbifly.com




SOURCES & CREDITS :

   NOAA